Navasota, Texas
Current Conditions -  °F | °C
As of 11:15 PM on Saturday 20 Dec 2014 (Local Time) from K11R Reporting Station
Overcast Overcast  
Wind Chill: 52°   Ceiling: 1800
Heat Index: 52°   Visibility: 10mi
Dew Point: 48°   Wind: 0mph
Humidity: 87%   Direction: NA
Pressure: 30.2"   Gusts: NA
Location:  30.39°N, 96.09°W
Report Text: K11R 210515Z AUTO 00000KT 10SM OVC018 11/09 A3020 RMK AO2 T01110090
Loading
Personal Weather Stations






























Interactive Weather Map New forecast layout! Learn more

10-Day Weather Forecast

Advertisements
Track Severe Weather on mobile